Time;durP1;ratioP1;P1;durP2;ratioP2;P2;SDS_P1;SDS_P2;PMS_P1;PMS_P2;Temp;Humidity;BMP_temperature;BMP_pressure;BME280_temperature;BME280_humidity;BME280_pressure;Samples;Min_cycle;Max_cycle;Signal;HPM_P1;HPM_P2
2023/04/21 00:01:34;;;;;;;;;;;;;;;20.43;50.78;101500.78;4935104;29;2733;-80
2023/04/21 00:04:00;;;;;;;;;;;;;;;20.43;50.93;101504.41;4935219;29;2679;-80
2023/04/21 00:06:30;;;;;;;;;;;;;;;20.43;50.87;101495.78;4928345;28;3219;-80
2023/04/21 00:08:56;;;;;;;;;;;;;;;20.41;50.80;101504.31;4931428;29;2961;-80
2023/04/21 00:11:22;;;;;;;;;;;;;;;20.42;50.75;101493.53;4927575;29;2778;-79
2023/04/21 00:13:49;;;;;;;;;;;;;;;20.42;50.81;101493.53;4929112;29;2500;-80
2023/04/21 00:16:15;;;;;;;;;;;;;;;20.41;50.96;101492.03;4929615;29;2709;-80
2023/04/21 00:18:42;;;;;;;;;;;;;;;20.41;50.82;101492.03;4925348;29;2830;-80
2023/04/21 00:21:08;;;;;;;;;;;;;;;20.43;50.92;101490.03;4928753;29;2750;-79
2023/04/21 00:23:34;;;;;;;;;;;;;;;20.45;50.73;101490.13;4930774;29;2889;-79
2023/04/21 00:26:01;;;;;;;;;;;;;;;20.46;50.68;101483.00;4925245;29;2730;-79
2023/04/21 00:28:28;;;;;;;;;;;;;;;20.45;50.99;101487.25;4931538;29;2662;-81
2023/04/21 00:30:56;;;;;;;;;;;;;;;20.45;50.92;101487.25;4915931;29;2643;-81
2023/04/21 00:33:22;;;;;;;;;;;;;;;20.43;50.96;101484.28;4915680;29;2863;-80
2023/04/21 00:35:49;;;;;;;;;;;;;;;20.43;50.97;101490.03;4917112;29;2847;-81
2023/04/21 00:38:15;;;;;;;;;;;;;;;20.41;50.87;101495.66;4930392;29;2686;-80
2023/04/21 00:40:41;;;;;;;;;;;;;;;20.40;51.14;101488.41;4915381;29;2706;-81
2023/04/21 00:43:10;;;;;;;;;;;;;;;20.40;50.98;101490.53;4909665;29;2775;-80
2023/04/21 00:45:36;;;;;;;;;;;;;;;20.39;50.95;101486.91;4914436;29;2735;-80
2023/04/21 00:48:03;;;;;;;;;;;;;;;20.39;51.13;101484.03;4914964;29;2694;-80
2023/04/21 00:50:31;;;;;;;;;;;;;;;20.39;51.08;101486.91;4934635;29;2762;-80
2023/04/21 00:52:57;;;;;;;;;;;;;;;20.39;51.00;101489.06;4914325;29;2804;-81
2023/04/21 00:55:23;;;;;;;;;;;;;;;20.37;51.04;101486.81;4930889;29;2704;-81
2023/04/21 00:57:50;;;;;;;;;;;;;;;20.36;51.18;101491.03;4926656;29;2797;-80
2023/04/21 01:00:17;;;;;;;;;;;;;;;20.36;51.18;101491.03;4917134;29;2893;-81
2023/04/21 01:02:44;;;;;;;;;;;;;;;20.36;51.13;101485.28;4926464;29;2675;-79
2023/04/21 01:05:15;;;;;;;;;;;;;;;20.35;51.07;101478.06;4933904;29;2905;-80
2023/04/21 01:07:41;;;;;;;;;;;;;;;20.36;51.24;101478.81;4927514;29;2901;-80
2023/04/21 01:10:07;;;;;;;;;;;;;;;20.36;51.21;101476.66;4927504;29;2769;-81
2023/04/21 01:12:40;;;;;;;;;;;;;;;20.35;51.07;101475.19;4924213;29;2825;-81
2023/04/21 01:15:07;;;;;;;;;;;;;;;20.35;51.04;101474.44;4910315;29;2987;-80
2023/04/21 01:17:37;;;;;;;;;;;;;;;20.35;51.04;101468.69;4930651;29;2956;-81
2023/04/21 01:20:07;;;;;;;;;;;;;;;20.34;51.18;101475.81;4929702;29;2854;-80
2023/04/21 01:22:36;;;;;;;;;;;;;;;20.34;50.99;101473.69;4931806;29;2516;-80
2023/04/21 01:25:02;;;;;;;;;;;;;;;20.35;50.97;101466.56;4912140;29;2894;-80
2023/04/21 01:27:28;;;;;;;;;;;;;;;20.32;51.01;101470.72;4922693;29;2833;-81
2023/04/21 01:29:55;;;;;;;;;;;;;;;20.33;51.01;101466.44;4913607;29;2842;-81
2023/04/21 01:32:22;;;;;;;;;;;;;;;20.34;51.03;101470.06;4911921;29;2810;-81
2023/04/21 01:34:51;;;;;;;;;;;;;;;20.34;51.12;101470.06;4933349;29;2765;-81
2023/04/21 01:37:18;;;;;;;;;;;;;;;20.33;50.99;101474.31;4928607;29;3172;-80
2023/04/21 01:39:46;;;;;;;;;;;;;;;20.32;51.21;101467.84;4916836;29;2703;-81
2023/04/21 01:42:12;;;;;;;;;;;;;;;20.32;51.20;101467.06;4914508;29;2969;-80
2023/04/21 01:44:40;;;;;;;;;;;;;;;20.32;51.00;101461.31;4928049;29;2763;-80
2023/04/21 01:47:06;;;;;;;;;;;;;;;20.30;51.19;101459.09;4930890;29;2762;-80
2023/04/21 01:49:33;;;;;;;;;;;;;;;20.30;51.18;101464.84;4917801;29;2703;-80
2023/04/21 01:51:59;;;;;;;;;;;;;;;20.31;50.97;101466.31;4925261;29;2834;-80
2023/04/21 01:54:25;;;;;;;;;;;;;;;20.30;51.01;101465.56;4911741;29;2837;-67
2023/04/21 01:56:52;;;;;;;;;;;;;;;20.30;51.11;101459.09;4921061;29;2806;-73
2023/04/21 01:59:19;;;;;;;;;;;;;;;20.30;51.03;101459.09;4923663;29;2861;-68
2023/04/21 02:01:46;;;;;;;;;;;;;;;20.31;51.01;101460.56;4906178;29;2861;-67
2023/04/21 02:04:12;;;;;;;;;;;;;;;20.29;51.15;101463.31;4924397;29;2817;-68
2023/04/21 02:06:39;;;;;;;;;;;;;;;20.29;51.16;101454.69;4909418;29;2758;-68
2023/04/21 02:09:05;;;;;;;;;;;;;;;20.28;51.19;101458.97;4894309;29;2902;-68
2023/04/21 02:11:32;;;;;;;;;;;;;;;20.29;50.89;101454.69;4908110;29;2861;-68
2023/04/21 02:13:58;;;;;;;;;;;;;;;20.28;50.89;101450.34;4922991;29;2948;-68
2023/04/21 02:16:25;;;;;;;;;;;;;;;20.28;51.16;101444.59;4927303;29;2765;-68
2023/04/21 02:18:54;;;;;;;;;;;;;;;20.27;50.95;101448.81;4896112;29;2854;-68
2023/04/21 02:21:20;;;;;;;;;;;;;;;20.27;51.09;101449.59;4933227;29;2749;-68
2023/04/21 02:23:47;;;;;;;;;;;;;;;20.27;51.17;101449.59;4925670;29;2811;-68
2023/04/21 02:26:13;;;;;;;;;;;;;;;20.26;51.11;101448.09;4926073;29;3023;-67
2023/04/21 02:28:40;;;;;;;;;;;;;;;20.26;51.05;101453.09;4923359;29;2756;-68
2023/04/21 02:31:06;;;;;;;;;;;;;;;20.26;51.12;101441.59;4915184;29;3028;-68
2023/04/21 02:33:33;;;;;;;;;;;;;;;20.26;51.17;101450.97;4898471;29;2686;-68
2023/04/21 02:35:59;;;;;;;;;;;;;;;20.25;51.06;101440.13;4911315;29;2849;-68
2023/04/21 02:38:25;;;;;;;;;;;;;;;20.25;51.10;101440.13;4927775;29;2901;-68
2023/04/21 02:40:52;;;;;;;;;;;;;;;20.26;50.91;101435.84;4912319;29;2841;-68
2023/04/21 02:43:18;;;;;;;;;;;;;;;20.28;50.85;101450.34;4909293;29;2766;-68
2023/04/21 02:45:46;;;;;;;;;;;;;;;20.30;50.87;101444.69;4905909;29;2715;-68
2023/04/21 02:48:13;;;;;;;;;;;;;;;20.31;50.75;101440.44;4922185;29;2731;-68
2023/04/21 02:50:40;;;;;;;;;;;;;;;20.32;51.15;101436.19;4925981;29;2762;-68
2023/04/21 02:53:06;;;;;;;;;;;;;;;20.34;51.20;101436.31;4905677;29;2956;-68
2023/04/21 02:55:32;;;;;;;;;;;;;;;20.35;50.95;101446.41;4923689;29;2841;-68
2023/04/21 02:57:59;;;;;;;;;;;;;;;20.37;50.98;101440.78;4910944;29;2730;-68
2023/04/21 03:00:25;;;;;;;;;;;;;;;20.38;50.93;101442.25;4917136;29;2668;-68
2023/04/21 03:02:52;;;;;;;;;;;;;;;20.39;51.11;101443.78;4922260;29;2877;-69
2023/04/21 03:05:18;;;;;;;;;;;;;;;20.39;51.12;101440.91;4925467;29;2691;-68
2023/04/21 03:07:45;;;;;;;;;;;;;;;20.40;50.92;101448.13;4909996;29;2904;-68
2023/04/21 03:10:11;;;;;;;;;;;;;;;20.40;50.97;101444.50;4926150;29;2615;-69
2023/04/21 03:12:38;;;;;;;;;;;;;;;20.39;50.90;101432.25;4927443;29;2867;-68
2023/04/21 03:15:04;;;;;;;;;;;;;;;20.40;51.04;101438.75;4930574;29;2701;-68
2023/04/21 03:17:33;;;;;;;;;;;;;;;20.40;51.21;101438.75;4900613;29;2792;-68
2023/04/21 03:19:59;;;;;;;;;;;;;;;20.40;51.01;101435.88;4922943;29;2733;-68
2023/04/21 03:22:26;;;;;;;;;;;;;;;20.39;51.18;101440.91;4925665;29;2844;-68
2023/04/21 03:24:52;;;;;;;;;;;;;;;20.40;50.94;101444.50;4896389;29;2817;-68
2023/04/21 03:27:18;;;;;;;;;;;;;;;20.41;51.12;101437.38;4925827;29;2678;-68
2023/04/21 03:29:45;;;;;;;;;;;;;;;20.40;50.93;101433.75;4922104;29;2857;-68
2023/04/21 03:32:11;;;;;;;;;;;;;;;20.40;51.08;101433.00;4918750;29;2821;-68
2023/04/21 03:34:38;;;;;;;;;;;;;;;20.41;50.92;101438.13;4922844;29;2890;-68
2023/04/21 03:37:04;;;;;;;;;;;;;;;20.41;50.99;101438.13;4906297;29;2857;-68
2023/04/21 03:39:31;;;;;;;;;;;;;;;20.41;51.16;101434.50;4923381;29;2957;-68
2023/04/21 03:41:57;;;;;;;;;;;;;;;20.41;51.17;101432.38;4896627;29;2909;-69
2023/04/21 03:44:26;;;;;;;;;;;;;;;20.39;51.05;101440.91;4913245;29;1952;-68
2023/04/21 03:46:53;;;;;;;;;;;;;;;20.40;51.02;101445.25;4928051;29;3038;-69
2023/04/21 03:49:21;;;;;;;;;;;;;;;20.40;51.23;101439.50;4916206;29;2750;-69
2023/04/21 03:51:48;;;;;;;;;;;;;;;20.39;51.19;101443.03;4917316;29;2685;-68
2023/04/21 03:54:14;;;;;;;;;;;;;;;20.39;51.21;101438.03;4928716;29;2807;-68
2023/04/21 03:56:41;;;;;;;;;;;;;;;20.39;51.24;101438.03;4927489;29;2758;-67
2023/04/21 03:59:07;;;;;;;;;;;;;;;20.40;51.20;101438.75;4929959;29;2703;-68
2023/04/21 04:01:34;;;;;;;;;;;;;;;20.40;51.01;101450.25;4918130;29;2880;-68
2023/04/21 04:04:00;;;;;;;;;;;;;;;20.39;51.16;101449.53;4930471;29;2877;-68
2023/04/21 04:06:27;;;;;;;;;;;;;;;20.40;51.09;101442.38;4926030;29;2762;-68
2023/04/21 04:08:53;;;;;;;;;;;;;;;20.38;51.09;101448.00;4925981;29;2706;-68
2023/04/21 04:11:20;;;;;;;;;;;;;;;20.39;51.18;101449.53;4929839;29;2817;-68
2023/04/21 04:13:46;;;;;;;;;;;;;;;20.38;51.13;101453.78;4925308;29;2840;-68
2023/04/21 04:16:12;;;;;;;;;;;;;;;20.38;51.06;101450.16;4913050;29;2964;-68
2023/04/21 04:18:39;;;;;;;;;;;;;;;20.37;51.00;101446.53;4930690;29;2744;-67
2023/04/21 04:21:06;;;;;;;;;;;;;;;20.38;51.21;101458.78;4930899;29;2796;-68
2023/04/21 04:23:33;;;;;;;;;;;;;;;20.36;51.03;101462.28;4927523;29;2822;-68
2023/04/21 04:26:00;;;;;;;;;;;;;;;20.35;51.16;101460.81;4925913;29;2686;-68
2023/04/21 04:28:27;;;;;;;;;;;;;;;20.37;51.19;101460.91;4922018;29;2873;-68
2023/04/21 04:30:54;;;;;;;;;;;;;;;20.39;51.20;101460.28;4919481;29;2812;-68
2023/04/21 04:33:20;;;;;;;;;;;;;;;20.38;51.23;101461.66;4920773;29;2833;-68
2023/04/21 04:35:46;;;;;;;;;;;;;;;20.38;51.19;101465.28;4924722;29;2833;-68
2023/04/21 04:38:16;;;;;;;;;;;;;;;20.38;51.29;101458.78;4925575;29;2977;-68
2023/04/21 04:40:42;;;;;;;;;;;;;;;20.39;51.22;101455.28;4924129;29;2939;-67
2023/04/21 04:43:12;;;;;;;;;;;;;;;20.38;51.18;101459.53;4911159;29;2706;-68
2023/04/21 04:45:38;;;;;;;;;;;;;;;20.38;51.02;101453.78;4906172;29;2919;-68
2023/04/21 04:48:04;;;;;;;;;;;;;;;20.39;51.16;101461.03;4927333;29;2572;-68
2023/04/21 04:50:31;;;;;;;;;;;;;;;20.39;51.01;101455.28;4922922;29;2945;-68
2023/04/21 04:52:57;;;;;;;;;;;;;;;20.40;51.21;101456.03;4924655;29;2979;-68
2023/04/21 04:55:24;;;;;;;;;;;;;;;20.40;51.13;101451.00;4927833;29;2921;-68
2023/04/21 04:57:51;;;;;;;;;;;;;;;20.39;51.20;101455.28;4922007;29;2892;-68
2023/04/21 05:00:17;;;;;;;;;;;;;;;20.40;51.23;101456.03;4920192;29;3021;-67
2023/04/21 05:02:43;;;;;;;;;;;;;;;20.39;51.20;101461.03;4926548;29;2764;-68
2023/04/21 05:05:10;;;;;;;;;;;;;;;20.38;51.18;101459.53;4926767;29;2841;-68
2023/04/21 05:07:37;;;;;;;;;;;;;;;20.38;51.03;101459.53;4926100;29;2829;-68
2023/04/21 05:10:03;;;;;;;;;;;;;;;20.38;51.07;101453.78;4917762;29;2976;-67
2023/04/21 05:12:31;;;;;;;;;;;;;;;20.36;51.22;101467.28;4921992;29;2787;-69
2023/04/21 05:14:57;;;;;;;;;;;;;;;20.36;51.15;101465.16;4921183;29;3155;-68
2023/04/21 05:17:23;;;;;;;;;;;;;;;20.36;51.24;101461.53;4924115;29;2600;-68
2023/04/21 05:19:50;;;;;;;;;;;;;;;20.34;50.97;101465.06;4924662;29;2758;-69
2023/04/21 05:22:16;;;;;;;;;;;;;;;20.35;51.12;101466.56;4924525;29;2893;-67
2023/04/21 05:24:43;;;;;;;;;;;;;;;20.33;51.14;101457.81;4923954;29;3099;-69
2023/04/21 05:27:09;;;;;;;;;;;;;;;20.30;51.02;101461.97;4918272;29;3238;-70
2023/04/21 05:29:35;;;;;;;;;;;;;;;20.43;50.91;101458.38;4923399;29;2761;-70
2023/04/21 05:32:02;;;;;;;;;;;;;;;20.47;50.85;101455.72;4916965;29;2876;-71
2023/04/21 05:34:28;;;;;;;;;;;;;;;20.48;50.89;101457.22;4924489;29;2963;-71
2023/04/21 05:36:55;;;;;;;;;;;;;;;20.61;51.15;101466.53;4921286;29;2749;-70
2023/04/21 05:39:21;;;;;;;;;;;;;;;20.56;51.15;101473.44;4925951;29;2816;-70
2023/04/21 05:41:47;;;;;;;;;;;;;;;20.56;51.41;101461.94;4910851;29;2758;-68
2023/04/21 05:44:17;;;;;;;;;;;;;;;20.11;50.82;101465.91;4922667;29;2787;-67
2023/04/21 05:46:44;;;;;;;;;;;;;;;20.28;51.11;101453.97;4922281;29;2791;-69
2023/04/21 05:49:10;;;;;;;;;;;;;;;20.41;50.77;101466.91;4919585;29;2634;-69
2023/04/21 05:51:36;;;;;;;;;;;;;;;20.01;47.94;101463.22;4914686;29;2959;-67
2023/04/21 05:54:03;;;;;;;;;;;;;;;18.09;45.89;101462.94;4918632;29;2724;-70
2023/04/21 05:56:29;;;;;;;;;;;;;;;17.89;44.74;101457.38;4918132;29;2730;-68
2023/04/21 05:58:56;;;;;;;;;;;;;;;17.89;44.25;101463.13;4926243;29;2663;-68
2023/04/21 06:01:22;;;;;;;;;;;;;;;17.72;43.89;101460.50;4917898;29;2690;-68
2023/04/21 06:03:48;;;;;;;;;;;;;;;17.71;44.13;101459.00;4923295;29;2758;-66
2023/04/21 06:06:16;;;;;;;;;;;;;;;17.83;44.21;101456.97;4921882;29;2690;-67
2023/04/21 06:08:42;;;;;;;;;;;;;;;17.61;44.12;101461.19;4930374;29;2811;-68
2023/04/21 06:11:09;;;;;;;;;;;;;;;17.67;44.36;101455.88;4909558;29;2716;-70
2023/04/21 06:13:35;;;;;;;;;;;;;;;17.88;44.22;101455.88;4915968;29;2759;-67
2023/04/21 06:16:04;;;;;;;;;;;;;;;18.83;43.89;101460.53;4916150;29;3076;-68
2023/04/21 06:18:31;;;;;;;;;;;;;;;19.24;43.75;101460.16;4921071;29;3199;-68
2023/04/21 06:20:57;;;;;;;;;;;;;;;19.43;43.78;101452.63;4919024;29;2727;-68
2023/04/21 06:23:23;;;;;;;;;;;;;;;19.53;43.88;101449.59;4915973;29;2814;-68
2023/04/21 06:26:03;;;;;;;;;;;;;;;19.62;44.02;101457.31;4915169;29;2869;-68
2023/04/21 06:28:30;;;;;;;;;;;;;;;19.64;44.83;101443.81;4920188;29;2671;-68
2023/04/21 06:30:57;;;;;;;;;;;;;;;19.74;44.72;101463.06;4925799;29;2720;-69
2023/04/21 06:33:23;;;;;;;;;;;;;;;19.75;44.74;101448.06;4922710;29;2695;-69
2023/04/21 06:35:50;;;;;;;;;;;;;;;19.76;44.91;101443.06;4924303;29;3005;-68
2023/04/21 06:38:16;;;;;;;;;;;;;;;19.79;45.11;101436.03;4925891;29;2731;-69
2023/04/21 06:40:43;;;;;;;;;;;;;;;19.82;45.85;101440.56;4924941;29;2547;-69
2023/04/21 06:43:09;;;;;;;;;;;;;;;19.86;45.66;101446.53;4909434;29;2744;-70
2023/04/21 06:45:36;;;;;;;;;;;;;;;19.89;45.77;101442.41;4921274;29;2725;-70
2023/04/21 06:48:02;;;;;;;;;;;;;;;19.90;46.13;101446.75;4930730;29;2403;-69
2023/04/21 06:50:28;;;;;;;;;;;;;;;19.93;46.25;101439.00;4924939;29;2659;-69
2023/04/21 06:52:55;;;;;;;;;;;;;;;20.04;46.04;101430.34;4918742;29;2716;-76
2023/04/21 06:55:21;;;;;;;;;;;;;;;20.00;46.44;101444.47;4900428;29;2822;-75
2023/04/21 06:57:47;;;;;;;;;;;;;;;20.02;46.48;101435.97;4920153;29;2867;-74
2023/04/21 07:00:14;;;;;;;;;;;;;;;20.02;46.54;101433.09;4923670;29;2633;-73
2023/04/21 07:02:40;;;;;;;;;;;;;;;20.04;46.75;101433.22;4921318;29;2051;-74
2023/04/21 07:05:07;;;;;;;;;;;;;;;20.08;46.77;101435.56;4919425;29;2754;-74
2023/04/21 07:07:33;;;;;;;;;;;;;;;20.12;46.80;101443.69;4920390;29;2754;-74
2023/04/21 07:10:00;;;;;;;;;;;;;;;20.14;46.96;101435.16;4926348;29;2703;-74
2023/04/21 07:12:26;;;;;;;;;;;;;;;20.14;47.17;101435.16;4924608;29;2711;-74
2023/04/21 07:14:52;;;;;;;;;;;;;;;20.16;47.19;101436.03;4926600;29;2750;-74
2023/04/21 07:17:19;;;;;;;;;;;;;;;20.18;47.23;101435.38;4925032;29;2955;-74
2023/04/21 07:19:45;;;;;;;;;;;;;;;20.18;47.45;101429.63;4918698;29;2989;-74
2023/04/21 07:22:12;;;;;;;;;;;;;;;20.18;47.50;101429.63;4924906;29;2691;-74
2023/04/21 07:24:38;;;;;;;;;;;;;;;20.21;47.45;101428.38;4925036;29;2631;-74
2023/04/21 07:27:04;;;;;;;;;;;;;;;20.21;47.58;101434.13;4929908;29;2941;-74
2023/04/21 07:29:31;;;;;;;;;;;;;;;20.22;47.57;101436.34;4933827;29;2763;-74
2023/04/21 07:31:57;;;;;;;;;;;;;;;20.26;47.80;101441.59;4929611;29;2814;-74
2023/04/21 07:34:24;;;;;;;;;;;;;;;20.23;47.82;101442.88;4927732;29;2715;-75
2023/04/21 07:36:50;;;;;;;;;;;;;;;20.26;47.98;101435.84;4925902;29;2732;-75
2023/04/21 07:39:16;;;;;;;;;;;;;;;20.26;47.89;101427.22;4920969;29;2767;-73
2023/04/21 07:41:43;;;;;;;;;;;;;;;20.06;47.57;101430.44;4925557;29;2746;-74
2023/04/21 07:44:09;;;;;;;;;;;;;;;19.91;46.65;101425.28;4923830;29;2939;-72
2023/04/21 07:46:36;;;;;;;;;;;;;;;20.05;47.89;101422.47;4930508;29;2628;-74
2023/04/21 07:49:02;;;;;;;;;;;;;;;20.18;47.80;101418.13;4926907;29;2923;-72
2023/04/21 07:51:30;;;;;;;;;;;;;;;20.22;47.61;101418.34;4929384;29;2786;-74
2023/04/21 07:53:57;;;;;;;;;;;;;;;20.27;47.33;101420.06;4918576;29;2731;-74
2023/04/21 07:56:23;;;;;;;;;;;;;;;20.28;47.84;101410.81;4920140;29;3114;-72
2023/04/21 07:58:49;;;;;;;;;;;;;;;20.31;48.22;101420.31;4917476;29;3032;-68
2023/04/21 08:01:16;;;;;;;;;;;;;;;20.35;48.44;101414.78;4917101;29;2901;-73
2023/04/21 08:03:43;;;;;;;;;;;;;;;20.34;48.99;101413.28;4929666;29;2691;-65
2023/04/21 08:06:10;;;;;;;;;;;;;;;20.32;49.12;101416.06;4921210;29;3077;-65
2023/04/21 08:08:36;;;;;;;;;;;;;;;20.34;49.04;101413.28;4907749;29;2832;-65
2023/04/21 08:11:03;;;;;;;;;;;;;;;20.35;48.89;101414.78;4932564;29;2667;-65
2023/04/21 08:13:29;;;;;;;;;;;;;;;20.36;48.93;101416.25;4918749;29;2758;-68
2023/04/21 08:15:56;;;;;;;;;;;;;;;20.34;49.26;101412.53;4921678;29;2903;-66
2023/04/21 08:18:22;;;;;;;;;;;;;;;20.36;49.30;101413.38;4921304;29;2750;-66
2023/04/21 08:20:49;;;;;;;;;;;;;;;20.38;49.06;101422.13;4930193;29;2848;-67
2023/04/21 08:23:15;;;;;;;;;;;;;;;20.39;49.05;101411.38;4930680;29;2881;-67
2023/04/21 08:25:42;;;;;;;;;;;;;;;20.41;49.11;101422.97;4930840;29;2953;-67
2023/04/21 08:28:08;;;;;;;;;;;;;;;20.39;49.16;101420.75;4924589;28;2805;-67
2023/04/21 08:30:34;;;;;;;;;;;;;;;20.39;49.21;101415.00;4927489;29;2837;-67
2023/04/21 08:33:01;;;;;;;;;;;;;;;20.41;49.09;101409.38;4925497;29;2746;-67
2023/04/21 08:35:27;;;;;;;;;;;;;;;20.42;49.01;101416.59;4928806;29;2897;-66
2023/04/21 08:37:54;;;;;;;;;;;;;;;20.43;49.07;101409.47;4927634;29;2722;-67
2023/04/21 08:40:20;;;;;;;;;;;;;;;20.43;49.07;101412.34;4924711;29;2695;-67
2023/04/21 08:42:47;;;;;;;;;;;;;;;20.42;49.14;101402.22;4924331;29;2306;-66
2023/04/21 08:45:13;;;;;;;;;;;;;;;20.43;49.28;101409.47;4931962;29;2779;-66
2023/04/21 08:47:40;;;;;;;;;;;;;;;20.42;49.31;101404.34;4921814;29;2854;-67
2023/04/21 08:50:07;;;;;;;;;;;;;;;20.44;49.27;101404.47;4923837;29;2722;-67
2023/04/21 08:52:33;;;;;;;;;;;;;;;20.44;49.34;101405.22;4929393;29;2705;-66
2023/04/21 08:54:59;;;;;;;;;;;;;;;20.44;49.41;101405.22;4928417;29;2716;-67
2023/04/21 08:57:26;;;;;;;;;;;;;;;20.46;49.02;101398.84;4906654;29;2958;-66
2023/04/21 08:59:52;;;;;;;;;;;;;;;20.43;49.36;101403.72;4932914;29;1662;-66
2023/04/21 09:02:19;;;;;;;;;;;;;;;20.43;49.31;101392.22;4928732;29;2702;-65
2023/04/21 09:04:46;;;;;;;;;;;;;;;20.46;49.26;101407.47;4925170;29;2695;-67
2023/04/21 09:07:32;;;;;;;;;;;;;;;20.47;49.35;101398.19;4905919;29;3021;-66
2023/04/21 09:10:01;;;;;;;;;;;;;;;20.47;49.31;101398.19;4926990;29;2707;-69
2023/04/21 09:12:27;;;;;;;;;;;;;;;20.49;49.40;101394.66;4902353;29;2681;-66
2023/04/21 09:14:54;;;;;;;;;;;;;;;20.48;49.37;101405.44;4929914;29;2668;-68
2023/04/21 09:17:22;;;;;;;;;;;;;;;20.48;49.44;101399.69;4926385;29;2751;-67
2023/04/21 09:19:48;;;;;;;;;;;;;;;20.49;49.43;101401.16;4926978;29;2696;-72
2023/04/21 09:22:15;;;;;;;;;;;;;;;20.40;49.55;101401.38;4925017;29;3301;-71
2023/04/21 09:24:45;;;;;;;;;;;;;;;20.33;49.38;101400.28;4930255;29;3099;-73
2023/04/21 09:27:12;;;;;;;;;;;;;;;20.42;49.04;101389.97;4929225;29;3319;-72
2023/04/21 09:29:38;;;;;;;;;;;;;;;20.47;48.72;101403.94;4906981;29;3042;-69
2023/04/21 09:32:04;;;;;;;;;;;;;;;20.46;48.63;101384.44;4901729;29;2722;-69
2023/04/21 09:34:33;;;;;;;;;;;;;;;20.46;48.70;101390.19;4912479;29;2726;-70
2023/04/21 09:37:02;;;;;;;;;;;;;;;20.50;48.23;101384.66;4912037;29;2712;-71
2023/04/21 09:39:29;;;;;;;;;;;;;;;20.49;48.01;101383.16;4910095;28;2883;-73
2023/04/21 09:42:01;;;;;;;;;;;;;;;20.53;47.94;101388.41;4921271;29;2845;-68
2023/04/21 09:44:27;;;;;;;;;;;;;;;20.54;47.97;101389.88;4924130;29;2912;-69
2023/04/21 09:47:01;;;;;;;;;;;;;;;20.51;47.85;101381.13;4923272;29;2809;-69
2023/04/21 09:49:28;;;;;;;;;;;;;;;20.52;48.08;101376.13;4927255;29;2767;-73
2023/04/21 09:51:55;;;;;;;;;;;;;;;20.49;48.29;101377.41;4926992;29;2838;-72
2023/04/21 09:54:42;;;;;;;;;;;;;;;20.44;48.54;101376.44;4912875;29;2686;-73
2023/04/21 09:57:09;;;;;;;;;;;;;;;20.39;48.66;101374.75;4911768;29;2701;-69
2023/04/21 09:59:35;;;;;;;;;;;;;;;20.45;47.94;101371.44;4924109;29;2688;-69
2023/04/21 10:02:03;;;;;;;;;;;;;;;20.46;47.40;101379.44;4924391;29;2781;-69
2023/04/21 10:04:30;;;;;;;;;;;;;;;20.48;47.15;101373.78;4925444;29;2785;-69
2023/04/21 10:06:58;;;;;;;;;;;;;;;20.51;46.76;101368.91;4923981;29;2945;-69
2023/04/21 10:09:26;;;;;;;;;;;;;;;20.52;46.66;101376.13;4905223;29;3120;-69
2023/04/21 10:11:52;;;;;;;;;;;;;;;20.55;46.94;101372.00;4923236;29;2675;-69
2023/04/21 10:14:18;;;;;;;;;;;;;;;20.55;47.21;101365.47;4906346;29;2788;-67
2023/04/21 10:16:55;;;;;;;;;;;;;;;20.54;47.35;101361.84;4930418;29;2580;-68
2023/04/21 10:19:21;;;;;;;;;;;;;;;20.53;47.47;101354.63;4930132;29;2627;-68
2023/04/21 10:21:48;;;;;;;;;;;;;;;20.52;47.34;101361.75;4919028;29;2782;-68
2023/04/21 10:24:14;;;;;;;;;;;;;;;20.54;47.29;101350.34;4924768;29;2843;-68
2023/04/21 10:26:41;;;;;;;;;;;;;;;20.56;47.37;101355.47;4925172;29;2757;-69
2023/04/21 10:29:08;;;;;;;;;;;;;;;20.58;47.70;101358.50;4916174;29;3263;-69
2023/04/21 10:31:35;;;;;;;;;;;;;;;20.58;47.80;101344.09;4919941;29;2898;-69
2023/04/21 10:34:07;;;;;;;;;;;;;;;20.57;47.89;101351.22;4920202;29;2913;-69
2023/04/21 10:36:34;;;;;;;;;;;;;;;20.56;47.78;101343.97;4929364;29;3021;-68
2023/04/21 10:39:02;;;;;;;;;;;;;;;20.58;46.98;101344.09;4924052;29;2755;-68
2023/04/21 10:41:29;;;;;;;;;;;;;;;20.59;46.78;101345.56;4925572;29;2677;-68
2023/04/21 10:44:11;;;;;;;;;;;;;;;20.61;46.72;101343.56;4921517;29;2622;-68
2023/04/21 10:46:38;;;;;;;;;;;;;;;20.61;46.66;101342.81;4928207;29;2980;-69
2023/04/21 10:49:05;;;;;;;;;;;;;;;20.61;46.88;101342.81;4920998;29;2652;-68
2023/04/21 10:51:32;;;;;;;;;;;;;;;20.61;46.03;101337.06;4921897;29;3146;-68
2023/04/21 10:53:58;;;;;;;;;;;;;;;20.49;43.24;101337.88;4922785;29;2840;-68
2023/04/21 10:56:25;;;;;;;;;;;;;;;20.41;46.01;101313.69;4923702;29;2771;-68
2023/04/21 10:58:51;;;;;;;;;;;;;;;20.47;45.89;101329.13;4916632;29;2765;-69
2023/04/21 11:01:17;;;;;;;;;;;;;;;20.53;45.81;101327.97;4921312;29;2822;-68
2023/04/21 11:03:44;;;;;;;;;;;;;;;20.60;45.38;101321.94;4923084;29;2805;-68
2023/04/21 11:06:14;;;;;;;;;;;;;;;20.61;45.08;101314.03;4916488;29;2854;-68
2023/04/21 11:08:53;;;;;;;;;;;;;;;20.60;45.12;101306.81;4921651;29;2659;-68
2023/04/21 11:11:22;;;;;;;;;;;;;;;20.63;45.26;101311.28;4919938;29;2766;-67
2023/04/21 11:13:48;;;;;;;;;;;;;;;20.62;45.83;101304.78;4919321;29;2703;-68
2023/04/21 11:16:15;;;;;;;;;;;;;;;20.63;46.04;101305.53;4919696;29;2759;-69
2023/04/21 11:18:42;;;;;;;;;;;;;;;20.64;46.38;101301.28;4922405;29;2805;-69
2023/04/21 11:21:12;;;;;;;;;;;;;;;20.62;46.47;101299.03;4919546;29;2853;-69
2023/04/21 11:23:40;;;;;;;;;;;;;;;20.62;46.52;101293.28;4920615;29;3037;-69
2023/04/21 11:26:06;;;;;;;;;;;;;;;20.63;46.80;101282.50;4920957;29;2925;-67
2023/04/21 11:28:32;;;;;;;;;;;;;;;20.65;46.71;101294.13;4923253;29;2743;-68
2023/04/21 11:30:59;;;;;;;;;;;;;;;20.66;46.95;101286.97;4918187;29;2924;-69
2023/04/21 11:33:27;;;;;;;;;;;;;;;20.66;47.01;101293.47;4926022;29;3076;-68
2023/04/21 11:35:57;;;;;;;;;;;;;;;20.66;47.11;101287.72;4913525;29;2969;-68
2023/04/21 11:38:24;;;;;;;;;;;;;;;20.68;47.04;101289.94;4902232;29;2680;-67
2023/04/21 11:40:50;;;;;;;;;;;;;;;20.67;47.27;101286.31;4918205;29;2889;-68
2023/04/21 11:43:17;;;;;;;;;;;;;;;20.69;47.16;101291.44;4921614;29;2671;-69
2023/04/21 11:45:47;;;;;;;;;;;;;;;20.70;47.24;101275.66;4924477;29;2682;-68
2023/04/21 11:48:13;;;;;;;;;;;;;;;20.70;47.33;101282.16;4923156;29;2917;-69
2023/04/21 11:50:40;;;;;;;;;;;;;;;20.71;47.25;101265.66;4920609;29;2691;-67
2023/04/21 11:53:06;;;;;;;;;;;;;;;20.71;47.11;101272.16;4905890;29;3306;-68
2023/04/21 11:55:33;;;;;;;;;;;;;;;20.73;47.20;101270.75;4926222;29;3003;-68
2023/04/21 11:57:59;;;;;;;;;;;;;;;20.73;47.36;101274.41;4908095;29;2843;-72
2023/04/21 12:00:28;;;;;;;;;;;;;;;20.69;47.54;101268.44;4922871;29;2644;-68
2023/04/21 12:02:55;;;;;;;;;;;;;;;20.72;47.68;101272.91;4924045;29;2645;-68
2023/04/21 12:05:22;;;;;;;;;;;;;;;20.77;47.75;101268.84;4911907;29;2643;-67
2023/04/21 12:07:51;;;;;;;;;;;;;;;20.75;47.57;101262.97;4923841;29;2875;-67
2023/04/21 12:10:17;;;;;;;;;;;;;;;20.78;47.82;101253.06;4921018;29;2694;-68
2023/04/21 12:12:44;;;;;;;;;;;;;;;20.78;48.02;101269.59;4929372;29;2758;-68
2023/04/21 12:15:11;;;;;;;;;;;;;;;20.60;43.67;101269.41;4921991;29;2815;-67
2023/04/21 12:17:38;;;;;;;;;;;;;;;20.67;46.68;101262.56;4918793;29;2783;-67
2023/04/21 12:20:06;;;;;;;;;;;;;;;20.73;47.15;101262.88;4927989;29;2671;-68
2023/04/21 12:22:32;;;;;;;;;;;;;;;20.74;47.25;101258.63;4920590;29;2695;-67
2023/04/21 12:24:58;;;;;;;;;;;;;;;20.74;47.59;101247.09;4926391;29;2751;-66
2023/04/21 12:27:25;;;;;;;;;;;;;;;20.75;47.40;101242.81;4925320;29;2818;-68
2023/04/21 12:29:51;;;;;;;;;;;;;;;20.72;47.57;101247.00;4928912;29;2676;-68
2023/04/21 12:32:18;;;;;;;;;;;;;;;20.74;47.85;101252.84;4911339;29;3365;-67
2023/04/21 12:34:44;;;;;;;;;;;;;;;20.75;47.73;101242.81;4926819;29;2613;-67
2023/04/21 12:37:10;;;;;;;;;;;;;;;20.79;47.84;101248.06;4924689;29;2640;-67
2023/04/21 12:39:37;;;;;;;;;;;;;;;20.77;48.08;101240.06;4921466;29;2771;-68
2023/04/21 12:42:03;;;;;;;;;;;;;;;20.77;47.94;101236.44;4924202;29;2683;-68
2023/04/21 12:44:29;;;;;;;;;;;;;;;20.79;48.10;101240.16;4926230;29;2712;-68
2023/04/21 12:46:56;;;;;;;;;;;;;;;20.77;47.98;101237.19;4926207;29;2639;-69